Terminal Aerodrome Forecast
Issued by NWS Lake Charles, LA

Home | Current Version | Previous Version | Text Only | Print | Product List | Glossary On
Versions: 1 2 3 4 5 6 7 8 9 10 11 12 13 14 15 16
000
FTUS44 KLCH 280500
TAFAEX
TAF
KAEX 280524Z 2806/2906 32010KT 6SM -SHRA OVC006
     FM281300 35010KT 6SM -SHRA OVC012
     FM281700 36007KT 6SM -SHRA OVC010
     FM282200 36004KT P6SM VCSH OVC008
      TEMPO 2822/2902 4SM -SHRA BR
     FM290200 01004KT 4SM BR OVC004=

USA.gov is the U.S. government's official web portal to all federal, state and local government web resources and services.